createdAt,value
2018-04-23T00:00:12.228Z,1000.7
2018-04-23T00:01:13.842Z,1000.7
2018-04-23T00:02:15.455Z,1000.7
2018-04-23T00:03:17.077Z,1000.7
2018-04-23T00:04:18.692Z,1000.7
2018-04-23T00:05:20.307Z,1000.7
2018-04-23T00:06:21.933Z,1000.6
2018-04-23T00:07:23.552Z,1000.7
2018-04-23T00:08:25.168Z,1000.6
2018-04-23T00:09:26.787Z,1000.6
2018-04-23T00:10:28.397Z,1000.6
2018-04-23T00:11:30.021Z,1000.6
2018-04-23T00:12:31.634Z,1000.5
2018-04-23T00:13:33.261Z,1000.5
2018-04-23T00:14:34.880Z,1000.5
2018-04-23T00:15:36.491Z,1000.5
2018-04-23T00:16:38.111Z,1000.5
2018-04-23T00:17:39.723Z,1000.5
2018-04-23T00:18:41.341Z,1000.6
2018-04-23T00:19:42.961Z,1000.6
2018-04-23T00:20:44.582Z,1000.6
2018-04-23T00:21:46.196Z,1000.7
2018-04-23T00:22:47.811Z,1000.8
2018-04-23T00:23:49.430Z,1000.9
2018-04-23T00:24:51.050Z,1000.9
2018-04-23T00:25:52.670Z,1001.0
2018-04-23T00:26:54.286Z,1001.2
2018-04-23T00:27:55.901Z,1001.5
2018-04-23T00:28:57.535Z,1001.6
2018-04-23T00:29:59.137Z,1001.6
2018-04-23T00:31:00.752Z,1001.6
2018-04-23T00:32:02.372Z,1001.4
2018-04-23T00:33:03.989Z,1001.2
2018-04-23T00:34:06.538Z,1001.2
2018-04-23T00:35:08.162Z,1001.4
2018-04-23T00:36:09.772Z,1001.5
2018-04-23T00:37:11.386Z,1001.7
2018-04-23T00:38:13.000Z,1001.7
2018-04-23T00:39:14.616Z,1001.8
2018-04-23T00:40:16.232Z,1001.8
2018-04-23T00:41:17.850Z,1001.8
2018-04-23T00:42:19.466Z,1001.8
2018-04-23T00:43:21.088Z,1001.8
2018-04-23T00:44:22.704Z,1001.9
2018-04-23T00:45:24.320Z,1001.9
2018-04-23T00:46:25.937Z,1001.9
2018-04-23T00:47:27.553Z,1001.9
2018-04-23T00:48:29.164Z,1001.9
2018-04-23T00:49:30.788Z,1001.9
2018-04-23T00:50:32.402Z,1002.0
2018-04-23T00:51:34.019Z,1001.9
2018-04-23T00:52:35.639Z,1001.9
2018-04-23T00:53:37.250Z,1001.8
2018-04-23T00:54:38.864Z,1001.9
2018-04-23T00:55:40.491Z,1001.9
2018-04-23T00:56:42.109Z,1001.9
2018-04-23T00:57:43.728Z,1001.8
2018-04-23T00:58:45.339Z,1001.7
2018-04-23T00:59:46.959Z,1001.6
2018-04-23T01:00:48.574Z,1001.5
2018-04-23T01:01:50.194Z,1001.4
2018-04-23T01:02:51.809Z,1001.3
2018-04-23T01:03:53.427Z,1001.3
2018-04-23T01:04:55.053Z,1001.3
2018-04-23T01:05:56.664Z,1001.3
2018-04-23T01:06:58.283Z,1001.2
2018-04-23T01:07:59.904Z,1001.2
2018-04-23T01:09:01.520Z,1001.3
2018-04-23T01:10:03.135Z,1001.2
2018-04-23T01:11:04.757Z,1001.2
2018-04-23T01:12:06.376Z,1001.1
2018-04-23T01:13:07.989Z,1001.1
2018-04-23T01:14:09.603Z,1001.2
2018-04-23T01:15:11.220Z,1001.2
2018-04-23T01:16:12.836Z,1001.3
2018-04-23T01:17:14.456Z,1001.2
2018-04-23T01:18:16.077Z,1001.2
2018-04-23T01:19:17.693Z,1001.2
2018-04-23T01:20:19.309Z,1001.2
2018-04-23T01:21:20.942Z,1001.2
2018-04-23T01:22:22.561Z,1001.2
2018-04-23T01:23:24.179Z,1001.2
2018-04-23T01:24:25.798Z,1001.1
2018-04-23T01:25:27.411Z,1001.1
2018-04-23T01:26:29.032Z,1001.2
2018-04-23T01:27:30.645Z,1001.2
2018-04-23T01:28:32.258Z,1001.2
2018-04-23T01:29:33.880Z,1001.2
2018-04-23T01:30:35.495Z,1001.2
2018-04-23T01:31:37.116Z,1001.2
2018-04-23T01:32:38.740Z,1001.2
2018-04-23T01:33:40.357Z,1001.2
2018-04-23T01:34:41.971Z,1001.2
2018-04-23T01:35:43.583Z,1001.2
2018-04-23T01:36:45.202Z,1001.2
2018-04-23T01:37:46.817Z,1001.2
2018-04-23T01:38:48.441Z,1001.2
2018-04-23T01:39:50.053Z,1001.3
2018-04-23T01:40:51.673Z,1001.4
2018-04-23T01:41:53.284Z,1001.3
2018-04-23T01:42:54.899Z,1001.3
2018-04-23T01:43:56.520Z,1001.3
2018-04-23T01:44:58.135Z,1001.3
2018-04-23T01:45:59.756Z,1001.4
2018-04-23T01:47:01.377Z,1001.3
2018-04-23T01:48:02.992Z,1001.3
2018-04-23T01:49:04.609Z,1001.2
2018-04-23T01:50:06.229Z,1001.2
2018-04-23T01:51:07.845Z,1001.3
2018-04-23T01:52:09.465Z,1001.3
2018-04-23T01:53:11.089Z,1001.2
2018-04-23T01:54:12.701Z,1001.2
2018-04-23T01:55:14.326Z,1001.2
2018-04-23T01:56:15.938Z,1001.2
2018-04-23T01:57:17.554Z,1001.2
2018-04-23T01:58:19.166Z,1001.3
2018-04-23T01:59:20.787Z,1001.4
2018-04-23T02:00:22.399Z,1001.3
2018-04-23T02:01:24.017Z,1001.3
2018-04-23T02:02:25.640Z,1001.3
2018-04-23T02:03:27.252Z,1001.3
2018-04-23T02:04:28.872Z,1001.3
2018-04-23T02:05:30.491Z,1001.3
2018-04-23T02:06:32.108Z,1001.4
2018-04-23T02:07:33.727Z,1001.3
2018-04-23T02:08:35.347Z,1001.4
2018-04-23T02:09:36.964Z,1001.3
2018-04-23T02:10:38.574Z,1001.4
2018-04-23T02:11:40.194Z,1001.4
2018-04-23T02:12:41.811Z,1001.4
2018-04-23T02:13:43.433Z,1001.4
2018-04-23T02:14:45.046Z,1001.4
2018-04-23T02:15:46.660Z,1001.4
2018-04-23T02:16:48.283Z,1001.4
2018-04-23T02:17:49.898Z,1001.4
2018-04-23T02:18:51.515Z,1001.4
2018-04-23T02:19:53.135Z,1001.4
2018-04-23T02:20:54.746Z,1001.4
2018-04-23T02:21:56.366Z,1001.5
2018-04-23T02:22:58.023Z,1001.4
2018-04-23T02:23:59.605Z,1001.5
2018-04-23T02:25:01.218Z,1001.5
2018-04-23T02:26:02.839Z,1001.5
2018-04-23T02:27:04.451Z,1001.5
2018-04-23T02:28:06.076Z,1001.5
2018-04-23T02:29:07.693Z,1001.5
2018-04-23T02:30:09.312Z,1001.4
2018-04-23T02:31:10.927Z,1001.5
2018-04-23T02:32:12.540Z,1001.5
2018-04-23T02:33:14.161Z,1001.5
2018-04-23T02:34:15.773Z,1001.5
2018-04-23T02:35:17.393Z,1001.5
2018-04-23T02:36:19.013Z,1001.6
2018-04-23T02:37:20.628Z,1001.6
2018-04-23T02:38:22.245Z,1001.6
2018-04-23T02:39:23.862Z,1001.6
2018-04-23T02:40:25.476Z,1001.7
2018-04-23T02:41:27.094Z,1001.7
2018-04-23T02:42:28.711Z,1001.7
2018-04-23T02:43:30.325Z,1001.7
2018-04-23T02:44:31.942Z,1001.7
2018-04-23T02:45:33.559Z,1001.7
2018-04-23T02:46:35.176Z,1001.6
2018-04-23T02:47:36.791Z,1001.6
2018-04-23T02:48:38.413Z,1001.6
2018-04-23T02:49:40.026Z,1001.6
2018-04-23T02:50:41.650Z,1001.6
2018-04-23T02:51:43.262Z,1001.6
2018-04-23T02:52:44.884Z,1001.6
2018-04-23T02:53:46.494Z,1001.5
2018-04-23T02:54:48.107Z,1001.5
2018-04-23T02:55:49.725Z,1001.5
2018-04-23T02:56:51.338Z,1001.5
2018-04-23T02:57:52.963Z,1001.5
2018-04-23T02:58:54.576Z,1001.5
2018-04-23T02:59:56.191Z,1001.5
2018-04-23T03:00:57.802Z,1001.6
2018-04-23T03:01:59.416Z,1001.6
2018-04-23T03:03:01.031Z,1001.6
2018-04-23T03:04:02.648Z,1001.6
2018-04-23T03:05:04.270Z,1001.6
2018-04-23T03:06:05.884Z,1001.6
2018-04-23T03:07:07.499Z,1001.6
2018-04-23T03:08:09.116Z,1001.6
2018-04-23T03:09:10.732Z,1001.6
2018-04-23T03:10:12.351Z,1001.7
2018-04-23T03:11:13.968Z,1001.7
2018-04-23T03:12:15.580Z,1001.7
2018-04-23T03:13:17.197Z,1001.7
2018-04-23T03:14:18.818Z,1001.7
2018-04-23T03:15:20.430Z,1001.7
2018-04-23T03:16:22.048Z,1001.7
2018-04-23T03:17:23.666Z,1001.7
2018-04-23T03:18:25.281Z,1001.7
2018-04-23T03:19:26.896Z,1001.7
2018-04-23T03:20:28.521Z,1001.7
2018-04-23T03:21:30.138Z,1001.7
2018-04-23T03:22:31.748Z,1001.8
2018-04-23T03:23:33.367Z,1001.9
2018-04-23T03:24:34.981Z,1002.0
2018-04-23T03:25:36.598Z,1002.0
2018-04-23T03:26:38.219Z,1002.1
2018-04-23T03:27:39.837Z,1002.0
2018-04-23T03:28:41.451Z,1002.0
2018-04-23T03:29:43.070Z,1002.0
2018-04-23T03:30:44.689Z,1002.0
2018-04-23T03:31:46.304Z,1002.0
2018-04-23T03:32:47.923Z,1002.0
2018-04-23T03:33:49.542Z,1001.9
2018-04-23T03:34:51.157Z,1001.9
2018-04-23T03:35:52.774Z,1001.9
2018-04-23T03:36:54.391Z,1001.9
2018-04-23T03:37:56.005Z,1001.9
2018-04-23T03:38:57.624Z,1001.9
2018-04-23T03:39:59.241Z,1002.0
2018-04-23T03:41:00.854Z,1002.0
2018-04-23T03:42:02.475Z,1002.0
2018-04-23T03:43:04.090Z,1001.9
2018-04-23T03:44:05.704Z,1002.0
2018-04-23T03:45:07.327Z,1002.0
2018-04-23T03:46:08.934Z,1002.1
2018-04-23T03:47:10.556Z,1002.0
2018-04-23T03:48:12.175Z,1002.0
2018-04-23T03:49:13.786Z,1002.0
2018-04-23T03:50:15.402Z,1002.0
2018-04-23T03:51:17.020Z,1002.0
2018-04-23T03:52:18.633Z,1002.1
2018-04-23T03:53:20.253Z,1002.0
2018-04-23T03:54:21.866Z,1002.0
2018-04-23T03:55:23.485Z,1002.1
2018-04-23T03:56:25.103Z,1002.0
2018-04-23T03:57:26.720Z,1002.0
2018-04-23T03:58:28.333Z,1002.0
2018-04-23T03:59:29.950Z,1002.0
2018-04-23T04:00:31.561Z,1002.0
2018-04-23T04:01:33.179Z,1002.0
2018-04-23T04:02:34.791Z,1002.0
2018-04-23T04:03:36.415Z,1002.0
2018-04-23T04:04:38.036Z,1002.0
2018-04-23T04:05:39.650Z,1002.0
2018-04-23T04:06:41.267Z,1002.0
2018-04-23T04:07:42.888Z,1002.0
2018-04-23T04:08:44.502Z,1002.1
2018-04-23T04:09:46.123Z,1002.1
2018-04-23T04:10:47.739Z,1002.1
2018-04-23T04:11:49.363Z,1002.1
2018-04-23T04:12:50.974Z,1002.1
2018-04-23T04:13:52.596Z,1002.1
2018-04-23T04:14:54.207Z,1002.1
2018-04-23T04:15:55.828Z,1002.1
2018-04-23T04:16:57.465Z,1002.1
2018-04-23T04:17:59.062Z,1002.1
2018-04-23T04:19:00.681Z,1002.1
2018-04-23T04:20:02.298Z,1002.2
2018-04-23T04:21:03.915Z,1002.2
2018-04-23T04:22:05.536Z,1002.2
2018-04-23T04:23:07.156Z,1002.2
2018-04-23T04:24:08.776Z,1002.2
2018-04-23T04:25:10.399Z,1002.2
2018-04-23T04:26:12.018Z,1002.2
2018-04-23T04:27:13.634Z,1002.3
2018-04-23T04:28:15.259Z,1002.2
2018-04-23T04:29:16.876Z,1002.2
2018-04-23T04:30:18.500Z,1002.3
2018-04-23T04:31:20.122Z,1002.3
2018-04-23T04:32:21.742Z,1002.3
2018-04-23T04:33:23.360Z,1002.3
2018-04-23T04:34:24.976Z,1002.3
2018-04-23T04:35:26.599Z,1002.3
2018-04-23T04:36:28.213Z,1002.3
2018-04-23T04:37:29.830Z,1002.3
2018-04-23T04:38:31.453Z,1002.4
2018-04-23T04:39:33.079Z,1002.3
2018-04-23T04:40:34.694Z,1002.4
2018-04-23T04:41:36.340Z,1002.4
2018-04-23T04:42:37.963Z,1002.3
2018-04-23T04:43:39.595Z,1002.4
2018-04-23T04:44:41.218Z,1002.4
2018-04-23T04:45:42.835Z,1002.4
2018-04-23T04:46:44.459Z,1002.4
2018-04-23T04:47:46.082Z,1002.4
2018-04-23T04:48:47.699Z,1002.4
2018-04-23T04:49:49.320Z,1002.4
2018-04-23T04:50:50.936Z,1002.5
2018-04-23T04:51:52.554Z,1002.5
2018-04-23T04:52:54.183Z,1002.5
2018-04-23T04:53:55.803Z,1002.5
2018-04-23T04:54:57.427Z,1002.5
2018-04-23T04:55:59.049Z,1002.5
2018-04-23T04:57:00.668Z,1002.5
2018-04-23T04:58:02.285Z,1002.5
2018-04-23T04:59:03.951Z,1002.5
2018-04-23T05:00:05.522Z,1002.6
2018-04-23T05:01:07.146Z,1002.6
2018-04-23T05:02:08.770Z,1002.6
2018-04-23T05:03:10.387Z,1002.6
2018-04-23T05:04:12.011Z,1002.6
2018-04-23T05:05:13.629Z,1002.5
2018-04-23T05:06:15.255Z,1002.5
2018-04-23T05:07:16.870Z,1002.5
2018-04-23T05:08:18.489Z,1002.6
2018-04-23T05:09:20.113Z,1002.6
2018-04-23T05:10:21.736Z,1002.6
2018-04-23T05:11:23.354Z,1002.6
2018-04-23T05:12:24.973Z,1002.6
2018-04-23T05:13:26.616Z,1002.6
2018-04-23T05:14:28.239Z,1002.7
2018-04-23T05:15:29.859Z,1002.7
2018-04-23T05:16:31.481Z,1002.7
2018-04-23T05:17:33.103Z,1002.7
2018-04-23T05:18:34.721Z,1002.7
2018-04-23T05:19:36.342Z,1002.7
2018-04-23T05:20:37.971Z,1002.7
2018-04-23T05:21:39.588Z,1002.7
2018-04-23T05:22:41.212Z,1002.7
2018-04-23T05:23:42.839Z,1002.7
2018-04-23T05:24:44.452Z,1002.8
2018-04-23T05:25:46.076Z,1002.8
2018-04-23T05:26:48.358Z,1002.9
2018-04-23T05:27:49.979Z,1002.9
2018-04-23T05:28:51.603Z,1002.9
2018-04-23T05:29:53.229Z,1002.9
2018-04-23T05:30:54.850Z,1002.9
2018-04-23T05:31:56.470Z,1002.9
2018-04-23T05:32:58.092Z,1002.9
2018-04-23T05:33:59.711Z,1002.9
2018-04-23T05:35:01.332Z,1002.9
2018-04-23T05:36:02.954Z,1002.9
2018-04-23T05:37:04.577Z,1002.9
2018-04-23T05:38:06.200Z,1002.9
2018-04-23T05:39:07.821Z,1002.9
2018-04-23T05:40:09.442Z,1002.9
2018-04-23T05:41:11.065Z,1002.9
2018-04-23T05:42:12.683Z,1003.0
2018-04-23T05:43:14.338Z,1003.0
2018-04-23T05:44:15.929Z,1003.0
2018-04-23T05:45:17.552Z,1003.0
2018-04-23T05:46:19.174Z,1003.0
2018-04-23T05:47:20.805Z,1003.0
2018-04-23T05:48:22.419Z,1003.0
2018-04-23T05:49:24.040Z,1003.0
2018-04-23T05:50:25.668Z,1003.0
2018-04-23T05:51:27.290Z,1003.0
2018-04-23T05:52:28.913Z,1003.0
2018-04-23T05:53:30.530Z,1003.0
2018-04-23T05:54:32.153Z,1003.1
2018-04-23T05:55:33.772Z,1003.1
2018-04-23T05:56:35.397Z,1003.1
2018-04-23T05:57:37.021Z,1003.1
2018-04-23T05:58:38.643Z,1003.0
2018-04-23T05:59:40.275Z,1003.0
2018-04-23T06:00:41.886Z,1003.1
2018-04-23T06:01:43.506Z,1003.1
2018-04-23T06:02:45.134Z,1003.1
2018-04-23T06:03:46.754Z,1003.2
2018-04-23T06:04:48.380Z,1003.2
2018-04-23T06:05:49.999Z,1003.2
2018-04-23T06:06:51.622Z,1003.2
2018-04-23T06:07:53.240Z,1003.2
2018-04-23T06:08:54.905Z,1003.3
2018-04-23T06:09:56.483Z,1003.2
2018-04-23T06:10:58.108Z,1003.2
2018-04-23T06:11:59.733Z,1003.3
2018-04-23T06:13:01.354Z,1003.2
2018-04-23T06:14:02.986Z,1003.3
2018-04-23T06:15:04.603Z,1003.3
2018-04-23T06:16:06.224Z,1003.3
2018-04-23T06:17:07.850Z,1003.4
2018-04-23T06:18:09.472Z,1003.4
2018-04-23T06:19:11.101Z,1003.4
2018-04-23T06:20:12.726Z,1003.5
2018-04-23T06:21:14.348Z,1003.5
2018-04-23T06:22:15.967Z,1003.5
2018-04-23T06:23:17.587Z,1003.6
2018-04-23T06:24:19.210Z,1003.6
2018-04-23T06:25:20.833Z,1003.7
2018-04-23T06:26:22.463Z,1003.7
2018-04-23T06:27:24.083Z,1003.7
2018-04-23T06:28:25.705Z,1003.7
2018-04-23T06:29:27.334Z,1003.7
2018-04-23T06:30:28.956Z,1003.6
2018-04-23T06:31:30.576Z,1003.7
2018-04-23T06:32:32.205Z,1003.6
2018-04-23T06:33:33.828Z,1003.6
2018-04-23T06:34:35.451Z,1003.7
2018-04-23T06:35:37.079Z,1003.7
2018-04-23T06:36:38.703Z,1003.7
2018-04-23T06:37:40.332Z,1003.7
2018-04-23T06:38:41.956Z,1003.7
2018-04-23T06:39:43.574Z,1003.7
2018-04-23T06:40:45.198Z,1003.7
2018-04-23T06:41:46.821Z,1003.7
2018-04-23T06:42:48.449Z,1003.7
2018-04-23T06:43:50.072Z,1003.7
2018-04-23T06:44:51.691Z,1003.7
2018-04-23T06:45:53.316Z,1003.8
2018-04-23T06:46:54.945Z,1003.7
2018-04-23T06:47:56.564Z,1003.7
2018-04-23T06:48:58.190Z,1003.9
2018-04-23T06:49:59.813Z,1003.8
2018-04-23T06:51:01.428Z,1003.8
2018-04-23T06:52:03.058Z,1003.8
2018-04-23T06:53:04.682Z,1003.8
2018-04-23T06:54:06.309Z,1003.8
2018-04-23T06:55:07.926Z,1003.8
2018-04-23T06:56:09.554Z,1003.8
2018-04-23T06:57:11.182Z,1003.9
2018-04-23T06:58:12.802Z,1003.9
2018-04-23T06:59:14.425Z,1003.9
2018-04-23T07:00:16.047Z,1003.9
2018-04-23T07:01:17.670Z,1003.9
2018-04-23T07:02:19.290Z,1003.9
2018-04-23T07:03:20.919Z,1003.8
2018-04-23T07:04:22.543Z,1003.9
2018-04-23T07:05:24.160Z,1003.9
2018-04-23T07:06:25.786Z,1003.9
2018-04-23T07:07:27.410Z,1003.9
2018-04-23T07:08:29.031Z,1003.9
2018-04-23T07:09:30.657Z,1003.9
2018-04-23T07:10:32.330Z,1003.9
2018-04-23T07:11:33.900Z,1004.0
2018-04-23T07:12:35.524Z,1003.9
2018-04-23T07:13:37.181Z,1003.9
2018-04-23T07:14:38.768Z,1003.9
2018-04-23T07:15:40.397Z,1003.9
2018-04-23T07:16:42.013Z,1004.0
2018-04-23T07:17:43.648Z,1003.9
2018-04-23T07:18:45.268Z,1004.0
2018-04-23T07:19:46.892Z,1004.0
2018-04-23T07:20:48.503Z,1004.0
2018-04-23T07:21:50.124Z,1003.9
2018-04-23T07:22:51.748Z,1004.0
2018-04-23T07:23:53.375Z,1004.0
2018-04-23T07:24:54.995Z,1004.0
2018-04-23T07:25:56.623Z,1004.0
2018-04-23T07:26:58.242Z,1004.0
2018-04-23T07:27:59.861Z,1004.0
2018-04-23T07:29:01.490Z,1004.0
2018-04-23T07:30:03.112Z,1004.0
2018-04-23T07:31:04.740Z,1004.0
2018-04-23T07:32:06.361Z,1004.1
2018-04-23T07:33:07.979Z,1004.0
2018-04-23T07:34:10.346Z,1004.0
2018-04-23T07:35:11.973Z,1004.0
2018-04-23T07:36:13.591Z,1004.0
2018-04-23T07:37:15.218Z,1004.0
2018-04-23T07:38:18.455Z,1004.1
2018-04-23T07:39:20.079Z,1004.1
2018-04-23T07:40:21.701Z,1004.1
2018-04-23T07:41:23.323Z,1004.1
2018-04-23T07:42:24.944Z,1004.1
2018-04-23T07:43:26.572Z,1004.1
2018-04-23T07:44:28.188Z,1004.1
2018-04-23T07:45:29.822Z,1004.1
2018-04-23T07:46:31.435Z,1004.1
2018-04-23T07:47:33.060Z,1004.1
2018-04-23T07:48:34.685Z,1004.1
2018-04-23T07:49:36.302Z,1004.1
2018-04-23T07:50:37.926Z,1004.1
2018-04-23T07:51:39.554Z,1004.2
2018-04-23T07:52:41.177Z,1004.2
2018-04-23T07:53:42.805Z,1004.2
2018-04-23T07:54:44.428Z,1004.3
2018-04-23T07:55:46.060Z,1004.3
2018-04-23T07:56:47.680Z,1004.3
2018-04-23T07:57:49.309Z,1004.3
2018-04-23T07:58:50.933Z,1004.4
2018-04-23T07:59:52.563Z,1004.3
2018-04-23T08:00:54.187Z,1004.3
2018-04-23T08:01:55.821Z,1004.4
2018-04-23T08:02:57.442Z,1004.4
2018-04-23T08:03:59.069Z,1004.4
2018-04-23T08:05:00.692Z,1004.4
2018-04-23T08:06:02.317Z,1004.5
2018-04-23T08:07:03.944Z,1004.5
2018-04-23T08:08:05.576Z,1004.5
2018-04-23T08:09:07.206Z,1004.5
2018-04-23T08:10:08.832Z,1004.6
2018-04-23T08:11:10.462Z,1004.6
2018-04-23T08:12:12.108Z,1004.6
2018-04-23T08:13:13.716Z,1004.6
2018-04-23T08:14:15.344Z,1004.4
2018-04-23T08:15:16.977Z,1004.5
2018-04-23T08:16:18.604Z,1004.5
2018-04-23T08:17:20.229Z,1004.5
2018-04-23T08:18:21.859Z,1004.7
2018-04-23T08:19:23.483Z,1004.6
2018-04-23T08:20:25.114Z,1004.6
2018-04-23T08:21:26.744Z,1004.6
2018-04-23T08:22:28.372Z,1004.6
2018-04-23T08:23:30.003Z,1004.7
2018-04-23T08:24:31.631Z,1004.6
2018-04-23T08:25:33.256Z,1004.6
2018-04-23T08:26:34.885Z,1004.7
2018-04-23T08:27:36.516Z,1004.8
2018-04-23T08:28:38.143Z,1004.6
2018-04-23T08:29:39.783Z,1004.6
2018-04-23T08:30:41.404Z,1004.8
2018-04-23T08:31:43.044Z,1004.7
2018-04-23T08:32:44.658Z,1004.5
2018-04-23T08:33:46.286Z,1004.6
2018-04-23T08:34:47.922Z,1004.6
2018-04-23T08:35:49.550Z,1004.7
2018-04-23T08:36:51.185Z,1004.7
2018-04-23T08:37:52.821Z,1004.7
2018-04-23T08:38:54.447Z,1004.8
2018-04-23T08:39:56.081Z,1004.7
2018-04-23T08:40:57.708Z,1004.8
2018-04-23T08:41:59.343Z,1004.8
2018-04-23T08:43:00.974Z,1004.9
2018-04-23T08:44:02.617Z,1004.8
2018-04-23T08:45:04.248Z,1004.8
2018-04-23T08:46:05.885Z,1004.8
2018-04-23T08:47:07.521Z,1004.8
2018-04-23T08:48:09.149Z,1004.9
2018-04-23T08:49:10.785Z,1004.7
2018-04-23T08:50:12.418Z,1004.9
2018-04-23T08:51:14.058Z,1004.9
2018-04-23T08:52:15.703Z,1004.9
2018-04-23T08:53:17.329Z,1004.9
2018-04-23T08:54:18.963Z,1004.9
2018-04-23T08:55:20.599Z,1004.9
2018-04-23T08:56:22.234Z,1004.9
2018-04-23T08:57:23.876Z,1005.0
2018-04-23T08:58:25.516Z,1005.1
2018-04-23T08:59:27.155Z,1005.1
2018-04-23T09:00:28.787Z,1005.0
2018-04-23T09:01:30.442Z,1005.0
2018-04-23T09:02:32.062Z,1004.9
2018-04-23T09:03:33.698Z,1004.9
2018-04-23T09:04:35.334Z,1004.9
2018-04-23T09:05:36.978Z,1005.0
2018-04-23T09:06:38.611Z,1005.0
2018-04-23T09:07:40.252Z,1004.9
2018-04-23T09:08:41.890Z,1005.0
2018-04-23T09:09:43.523Z,1005.2
2018-04-23T09:10:45.162Z,1005.2
2018-04-23T09:11:46.839Z,1005.1
2018-04-23T09:12:48.433Z,1005.0
2018-04-23T09:13:50.072Z,1005.0
2018-04-23T09:14:51.714Z,1005.1
2018-04-23T09:15:53.344Z,1005.2
2018-04-23T09:16:54.986Z,1005.0
2018-04-23T09:17:56.619Z,1005.0
2018-04-23T09:18:58.255Z,1005.0
2018-04-23T09:19:59.897Z,1005.1
2018-04-23T09:21:01.538Z,1005.2
2018-04-23T09:22:03.170Z,1005.1
2018-04-23T09:23:04.805Z,1005.1
2018-04-23T09:24:06.440Z,1005.2
2018-04-23T09:25:08.080Z,1005.1
2018-04-23T09:26:09.714Z,1005.0
2018-04-23T09:27:11.356Z,1005.1
2018-04-23T09:28:12.995Z,1005.2
2018-04-23T09:29:14.624Z,1005.2
2018-04-23T09:30:16.263Z,1005.3
2018-04-23T09:31:17.900Z,1005.1
2018-04-23T09:32:19.535Z,1005.3
2018-04-23T09:33:21.180Z,1005.2
2018-04-23T09:34:22.818Z,1005.2
2018-04-23T09:35:24.454Z,1005.2
2018-04-23T09:36:26.093Z,1005.2
2018-04-23T09:37:27.732Z,1005.3
2018-04-23T09:38:29.372Z,1005.3
2018-04-23T09:39:31.011Z,1005.2
2018-04-23T09:40:32.645Z,1005.4
2018-04-23T09:41:34.276Z,1005.1
2018-04-23T09:42:35.914Z,1005.1
2018-04-23T09:43:37.551Z,1005.1
2018-04-23T09:44:39.199Z,1005.2
2018-04-23T09:45:40.820Z,1005.2
2018-04-23T09:46:42.459Z,1005.3
2018-04-23T09:47:44.098Z,1005.1
2018-04-23T09:48:45.733Z,1005.1
2018-04-23T09:49:47.369Z,1005.3
2018-04-23T09:50:48.999Z,1005.2
2018-04-23T09:51:50.630Z,1005.4
2018-04-23T09:52:52.271Z,1005.4
2018-04-23T09:53:53.910Z,1005.3
2018-04-23T09:54:55.546Z,1005.3
2018-04-23T09:55:57.184Z,1005.5
2018-04-23T09:56:58.818Z,1005.7
2018-04-23T09:58:00.458Z,1005.6
2018-04-23T09:59:02.093Z,1005.6
2018-04-23T10:00:03.735Z,1005.5
2018-04-23T10:01:05.370Z,1005.5
2018-04-23T10:02:07.009Z,1005.5
2018-04-23T10:03:08.645Z,1005.6
2018-04-23T10:04:10.285Z,1005.6
2018-04-23T10:05:11.920Z,1005.6
2018-04-23T10:06:13.556Z,1005.5
2018-04-23T10:07:15.195Z,1005.5
2018-04-23T10:08:16.831Z,1005.5
2018-04-23T10:09:18.473Z,1005.4
2018-04-23T10:10:20.116Z,1005.4
2018-04-23T10:11:21.758Z,1005.3
2018-04-23T10:12:23.391Z,1005.4
2018-04-23T10:13:25.026Z,1005.4
2018-04-23T10:14:27.356Z,1005.3
2018-04-23T10:15:28.999Z,1005.3
2018-04-23T10:16:30.628Z,1005.3
2018-04-23T10:17:32.265Z,1005.4
2018-04-23T10:18:33.905Z,1005.4
2018-04-23T10:19:35.535Z,1005.4
2018-04-23T10:20:37.167Z,1005.6
2018-04-23T10:21:38.805Z,1005.5
2018-04-23T10:22:40.433Z,1005.4
2018-04-23T10:23:42.070Z,1005.4
2018-04-23T10:24:43.705Z,1005.3
2018-04-23T10:25:45.341Z,1005.4
2018-04-23T10:26:46.972Z,1005.4
2018-04-23T10:27:48.601Z,1005.5
2018-04-23T10:28:50.231Z,1005.4
2018-04-23T10:29:51.861Z,1005.4
2018-04-23T10:30:53.493Z,1005.4
2018-04-23T10:31:55.122Z,1005.3
2018-04-23T10:32:56.764Z,1005.5
2018-04-23T10:33:58.386Z,1005.6
2018-04-23T10:35:00.018Z,1005.5
2018-04-23T10:36:01.647Z,1005.4
2018-04-23T10:37:03.281Z,1005.6
2018-04-23T10:38:04.918Z,1005.5
2018-04-23T10:39:06.548Z,1005.5
2018-04-23T10:40:08.185Z,1005.7
2018-04-23T10:41:09.814Z,1005.7
2018-04-23T10:42:11.454Z,1005.6
2018-04-23T10:43:13.087Z,1005.6
2018-04-23T10:44:14.717Z,1005.7
2018-04-23T10:45:16.360Z,1005.7
2018-04-23T10:46:17.999Z,1005.9
2018-04-23T10:47:19.632Z,1005.7
2018-04-23T10:48:21.265Z,1005.8
2018-04-23T10:49:22.900Z,1005.8
2018-04-23T10:50:24.539Z,1005.8
2018-04-23T10:51:26.186Z,1005.8
2018-04-23T10:52:27.814Z,1005.8
2018-04-23T10:53:29.452Z,1005.7
2018-04-23T10:54:31.094Z,1005.7
2018-04-23T10:55:32.724Z,1005.6
2018-04-23T10:56:34.364Z,1005.8
2018-04-23T10:57:36.004Z,1005.9
2018-04-23T10:58:37.638Z,1005.8
2018-04-23T10:59:39.279Z,1005.9
2018-04-23T11:00:40.916Z,1005.6
2018-04-23T11:01:42.559Z,1005.7
2018-04-23T11:02:44.191Z,1005.9
2018-04-23T11:03:45.828Z,1005.6
2018-04-23T11:04:47.464Z,1005.6
2018-04-23T11:05:49.103Z,1005.5
2018-04-23T11:06:50.744Z,1005.4
2018-04-23T11:07:52.382Z,1005.5
2018-04-23T11:08:54.016Z,1005.6
2018-04-23T11:09:55.650Z,1005.7
2018-04-23T11:10:57.288Z,1005.4
2018-04-23T11:11:58.920Z,1005.5
2018-04-23T11:13:00.560Z,1005.5
2018-04-23T11:14:02.197Z,1005.5
2018-04-23T11:15:03.829Z,1005.5
2018-04-23T11:16:05.472Z,1005.5
2018-04-23T11:17:07.101Z,1005.5
2018-04-23T11:18:08.738Z,1005.5
2018-04-23T11:19:10.367Z,1005.8
2018-04-23T11:20:11.996Z,1005.7
2018-04-23T11:21:13.628Z,1005.8
2018-04-23T11:22:15.265Z,1005.5
2018-04-23T11:23:16.905Z,1005.5
2018-04-23T11:24:18.539Z,1005.5
2018-04-23T11:25:20.170Z,1005.5
2018-04-23T11:26:21.807Z,1005.7
2018-04-23T11:27:23.437Z,1005.8
2018-04-23T11:28:25.077Z,1005.8
2018-04-23T11:29:26.711Z,1005.7
2018-04-23T11:30:28.347Z,1005.7
2018-04-23T11:31:29.979Z,1005.7
2018-04-23T11:32:31.616Z,1005.7
2018-04-23T11:33:33.264Z,1005.6
2018-04-23T11:34:34.887Z,1005.7
2018-04-23T11:35:36.529Z,1005.6
2018-04-23T11:36:38.164Z,1005.7
2018-04-23T11:37:39.800Z,1005.8
2018-04-23T11:38:41.436Z,1005.8
2018-04-23T11:39:43.072Z,1005.9
2018-04-23T11:40:44.704Z,1006.0
2018-04-23T11:41:46.346Z,1006.1
2018-04-23T11:42:47.986Z,1006.0
2018-04-23T11:43:49.622Z,1006.0
2018-04-23T11:44:51.263Z,1006.1
2018-04-23T11:45:52.901Z,1006.0
2018-04-23T11:46:54.539Z,1006.1
2018-04-23T11:47:56.177Z,1005.8
2018-04-23T11:48:57.814Z,1005.9
2018-04-23T11:49:59.457Z,1006.0
2018-04-23T11:51:01.091Z,1005.7
2018-04-23T11:52:02.737Z,1005.7
2018-04-23T11:53:04.371Z,1005.6
2018-04-23T11:54:06.002Z,1006.0
2018-04-23T11:55:07.642Z,1006.0
2018-04-23T11:56:09.285Z,1005.9
2018-04-23T11:57:10.920Z,1005.8
2018-04-23T11:58:12.565Z,1005.9
2018-04-23T11:59:14.223Z,1005.9
2018-04-23T12:00:15.839Z,1005.9
2018-04-23T12:01:17.478Z,1005.9
2018-04-23T12:02:19.112Z,1005.9
2018-04-23T12:03:20.749Z,1005.9
2018-04-23T12:04:22.392Z,1005.9
2018-04-23T12:05:24.034Z,1005.9
2018-04-23T12:06:25.673Z,1005.9
2018-04-23T12:07:27.304Z,1005.9
2018-04-23T12:08:28.945Z,1005.9
2018-04-23T12:09:30.582Z,1006.0
2018-04-23T12:10:32.224Z,1005.9
2018-04-23T12:11:33.866Z,1005.9
2018-04-23T12:12:35.502Z,1005.7
2018-04-23T12:13:37.140Z,1005.7
2018-04-23T12:14:38.781Z,1005.7
2018-04-23T12:15:40.415Z,1006.0
2018-04-23T12:16:42.055Z,1005.8
2018-04-23T12:17:43.696Z,1005.9
2018-04-23T12:18:45.329Z,1005.6
2018-04-23T12:19:46.971Z,1005.7
2018-04-23T12:20:48.607Z,1005.7
2018-04-23T12:21:50.245Z,1005.6
2018-04-23T12:22:51.876Z,1005.6
2018-04-23T12:23:53.512Z,1005.6
2018-04-23T12:24:55.149Z,1005.5
2018-04-23T12:25:56.786Z,1005.5
2018-04-23T12:26:58.422Z,1005.9
2018-04-23T12:28:00.060Z,1005.6
2018-04-23T12:29:01.690Z,1005.6
2018-04-23T12:30:03.325Z,1005.8
2018-04-23T12:31:04.959Z,1005.6
2018-04-23T12:32:06.593Z,1005.7
2018-04-23T12:33:08.229Z,1005.6
2018-04-23T12:34:09.862Z,1005.8
2018-04-23T12:35:11.498Z,1005.6
2018-04-23T12:36:13.130Z,1005.9
2018-04-23T12:37:14.766Z,1005.7
2018-04-23T12:38:16.395Z,1005.8
2018-04-23T12:39:18.040Z,1005.5
2018-04-23T12:40:19.665Z,1005.7
2018-04-23T12:41:21.306Z,1005.5
2018-04-23T12:42:22.938Z,1005.5
2018-04-23T12:43:24.568Z,1005.7
2018-04-23T12:44:26.203Z,1005.8
2018-04-23T12:45:27.834Z,1005.8
2018-04-23T12:46:29.465Z,1005.7
2018-04-23T12:47:31.106Z,1005.9
2018-04-23T12:48:32.731Z,1005.8